WAGO2: Chouteau Lock And Dam (L&D 17)

Data processed at Thu Nov 09 2017 15:34


All information presented herein is the property of the government of the United States of America and may be revised or deleted at any time without prior notice.
Dissemination of this information without the expressed written consent of the Public Affairs Office, Tulsa District U.S. Army Corps of Engineers is strictly prohibited.
These data are gathered electronically and, as presented, have not undergone any form of quality control. These data are not guaranteed to be valid or correct.
Go to home page.
Go to station list.

Upstream stations:

Downstream station:
Previous Day
Next Day
Current Day
    
SHEF ID:       WAGO2     Chouteau Lock And Dam (L&D 17)
STATION TYPE:  NAVIGATION LOCK
Normal Pool:  Bottom =   511.50, Top =   511.50

               PRECIP ELEVATION   STORAGE   TW-ELEV    INFLOW   RELEASE  AIR-TEMP  WIND-DIRWIND-SPEED REL-HUMID SOLAR-RAD   VOLTAGE  BAT-LOAD
                   in        ft     ac-ft        ft       cfs       cfs         F       deg       mph         %      W/m2      volt      volt
              Ccp-Rev   Ccp-Rev   Ccp-Rev   Ccp-Rev  Regi-Rev  Regi-Rev   Ccp-Rev   Ccp-Rev   Ccp-Rev   Ccp-Rev   Ccp-Rev   Ccp-Rev   Ccp-Rev
(US/Central)
11/08 00:00      0.00    511.90     24613    490.04       686      1500     42.37    343.90      6.80     99.02      0.00     13.54     13.05
11/08 01:00      0.00    511.90     24613    490.06       751      1500     42.01    346.20      6.40     98.33      0.00     13.44     13.05
11/08 02:00      0.00    511.82     24431    489.99       925      1000     42.67      1.50      4.80     91.74      0.00     13.56     13.07
11/08 03:00      0.00    511.84     24477    490.03      1045      1000     42.75      3.60      4.30     84.64      0.00     13.43     13.06
11/08 04:00      0.00    511.88     24568    490.12      1435      1000     42.35    359.40      3.70     84.97      0.00     13.60     13.05
11/08 05:00      0.00    511.89     24590    490.21      1530      1000     42.21    357.80      3.40     85.73      0.00     13.60     13.06
11/08 06:00      0.00    511.93     24681    490.25      1220      1000     41.88    356.10      4.30     86.64      0.00     13.59     13.07
11/08 07:00      0.00    511.92     24658    490.73       963      1000     41.88    346.50      4.90     88.12      0.00     13.58     13.05
11/08 08:00      0.00    512.14     25203    490.43       872      1000     41.67    344.80      5.50     91.23     17.40     13.56     13.05
11/08 09:00      0.00    511.84     24477    490.49       615      1000     41.86    351.70      6.90     87.73     83.00     13.37     13.06
11/08 10:00      0.00    511.94     24704    490.36       745      1000     42.40    350.60      7.80     86.44    143.30     13.59     13.05
11/08 11:00      0.00    511.86     24522    490.38      1000      1000     43.79    353.40      6.20     82.53    194.50     13.56     13.08
11/08 12:00      0.00    511.87     24545    490.47      1037      1000     45.39      0.20      5.40     77.40    232.30     13.54     13.07
11/08 13:00      0.00    511.88     24568    490.34      1018      1000     47.55    349.00      4.50     71.29    304.80     13.59     13.09
11/08 14:00      0.00    511.88     24568    490.19      1110      1000     49.87    359.00      2.70     63.74    319.40     13.54     13.09
11/08 15:00      0.00    511.87     24545    490.20      1110      1000     53.06    327.60      2.00     55.55    490.70     13.60     13.08
11/08 16:00      0.00    511.88     24568    490.18       887      1000     54.01     15.10      2.70     50.04    318.80     13.59     13.04
11/08 17:00      0.00    511.89     24590    490.29       687      1000     54.09     24.50      1.50     47.62    129.10     13.36     13.06
11/08 18:00      0.00    511.99     24817    490.32       542      1000     49.14    333.90      0.50     64.96      0.00     13.58     13.03
11/08 19:00      0.00    511.83     24454    490.26       287      1000     44.33    292.50      0.40     89.58      0.00     13.37     13.04
11/08 20:00      0.00    511.86     24522    490.37       617      1000     42.04    159.90      0.60     98.92      0.00     13.58     13.75
11/08 21:00      0.00    511.75     24272    490.20      1169      1000     40.24    201.80      0.00     99.48      0.00     13.55     13.09
11/08 22:00      0.00    512.43     25954    489.69      1177      1000     39.87    340.20      0.40     97.25      0.00     13.59     13.06
11/08 23:00      0.00    511.89     24590    489.84      1185      1000     38.61    137.50      0.30     96.86      0.00     13.59     13.07